Time;durP1;ratioP1;P1;durP2;ratioP2;P2;SDS_P1;SDS_P2;PMS_P1;PMS_P2;Temp;Humidity;BMP_temperature;BMP_pressure;BME280_temperature;BME280_humidity;BME280_pressure;Samples;Min_cycle;Max_cycle;Signal;HPM_P1;HPM_P2
2023/03/08 00:01:26;;;;;;;10.40;9.20;;;;;;;5.08;75.61;98990.06;5045533;28;20194;-72
2023/03/08 00:03:56;;;;;;;10.47;9.37;;;;;;;5.03;75.88;98982.41;5043136;28;20225;-72
2023/03/08 00:06:23;;;;;;;10.17;9.07;;;;;;;4.96;75.81;98986.72;5043819;28;20270;-72
2023/03/08 00:08:48;;;;;;;9.57;8.57;;;;;;;4.85;76.00;98986.78;5044227;28;20264;-72
2023/03/08 00:11:14;;;;;;;10.53;8.73;;;;;;;4.80;75.85;98985.13;5042180;28;20277;-73
2023/03/08 00:13:40;;;;;;;11.43;9.13;;;;;;;4.75;75.85;98982.59;5045293;28;20229;-72
2023/03/08 00:16:08;;;;;;;12.43;9.60;;;;;;;4.66;75.92;98992.88;5044773;28;20192;-72
2023/03/08 00:18:34;;;;;;;10.13;8.53;;;;;;;4.53;76.11;98982.72;5045218;28;20677;-74
2023/03/08 00:21:06;;;;;;;10.50;9.47;;;;;;;4.51;75.98;98981.03;5041379;28;20195;-72
2023/03/08 00:23:31;;;;;;;10.10;9.10;;;;;;;4.46;75.86;98978.50;5043829;28;20185;-72
2023/03/08 00:25:57;;;;;;;10.13;9.13;;;;;;;4.36;75.92;98972.56;5043150;28;20195;-72
2023/03/08 00:28:22;;;;;;;9.80;8.80;;;;;;;4.25;76.38;98964.91;5043252;28;20217;-73
2023/03/08 00:30:59;;;;;;;10.20;9.10;;;;;;;4.12;76.54;98948.75;5040279;28;20202;-72
2023/03/08 00:33:25;;;;;;;10.60;9.33;;;;;;;4.08;76.55;98948.78;5043930;28;20650;-72
2023/03/08 00:36:14;;;;;;;11.03;9.93;;;;;;;3.96;77.00;98942.84;5042131;28;20212;-72
2023/03/08 00:38:40;;;;;;;13.90;10.10;;;;;;;3.86;77.43;98948.84;5036872;28;20285;-72
2023/03/08 00:41:06;;;;;;;12.10;9.90;;;;;;;3.77;77.59;98949.75;5039221;28;20195;-72
2023/03/08 00:43:31;;;;;;;10.23;8.93;;;;;;;3.70;78.03;98957.44;5042591;28;20306;-72
2023/03/08 00:45:57;;;;;;;11.23;9.40;;;;;;;3.62;78.23;98958.31;5046491;28;20192;-72
2023/03/08 00:48:23;;;;;;;10.00;9.00;;;;;;;3.61;78.41;98953.19;5044127;28;20996;-72
2023/03/08 00:50:48;;;;;;;10.60;9.50;;;;;;;3.61;78.29;98951.47;5045177;28;20186;-71
2023/03/08 00:53:14;;;;;;;10.63;9.53;;;;;;;3.54;78.61;98941.25;5044668;28;20214;-72
2023/03/08 00:55:47;;;;;;;10.97;9.43;;;;;;;3.47;78.74;98940.41;5042593;28;20796;-74
2023/03/08 00:58:12;;;;;;;10.83;9.40;;;;;;;3.43;78.91;98939.59;5060541;28;20243;-74
2023/03/08 01:00:38;;;;;;;12.00;9.57;;;;;;;3.42;78.99;98929.34;5043065;28;20187;-74
2023/03/08 01:03:03;;;;;;;9.83;8.83;;;;;;;3.41;78.78;98925.94;5042004;28;20534;-71
2023/03/08 01:05:28;;;;;;;10.63;9.40;;;;;;;3.39;79.21;98924.25;5044180;28;20198;-72
2023/03/08 01:07:54;;;;;;;9.20;8.27;;;;;;;3.33;79.30;98923.41;5041577;28;20295;-72
2023/03/08 01:10:19;;;;;;;10.70;9.33;;;;;;;3.38;78.94;98917.44;5043030;28;20276;-72
2023/03/08 01:12:44;;;;;;;10.10;8.70;;;;;;;3.33;79.18;98905.50;5045158;28;20199;-72
2023/03/08 01:15:10;;;;;;;10.03;9.03;;;;;;;3.28;79.45;98909.75;5043707;28;20708;-75
2023/03/08 01:17:35;;;;;;;10.77;8.93;;;;;;;3.21;79.62;98902.97;5045783;28;20213;-73
2023/03/08 01:20:01;;;;;;;10.17;9.10;;;;;;;3.17;79.96;98897.03;5038318;28;20211;-72
2023/03/08 01:22:26;;;;;;;10.83;9.27;;;;;;;3.12;80.19;98901.28;5043510;28;20191;-73
2023/03/08 01:24:51;;;;;;;11.53;8.80;;;;;;;3.08;80.22;98899.56;5041419;28;20253;-72
2023/03/08 01:27:16;;;;;;;9.43;8.50;;;;;;;3.01;80.94;98891.06;5042768;28;20706;-72
2023/03/08 01:29:43;;;;;;;10.07;9.07;;;;;;;3.01;80.59;98891.06;5040616;28;20259;-72
2023/03/08 01:32:09;;;;;;;11.00;9.53;;;;;;;2.98;80.35;98892.75;5042550;28;20207;-73
2023/03/08 01:34:37;;;;;;;11.73;8.87;;;;;;;2.93;80.75;98887.66;5044576;28;21103;-72
2023/03/08 01:37:03;;;;;;;9.57;8.13;;;;;;;2.92;81.02;98880.84;5043197;28;20190;-71
2023/03/08 01:39:28;;;;;;;10.67;8.50;;;;;;;2.92;81.01;98875.72;5045566;28;20211;-73
2023/03/08 01:41:54;;;;;;;10.67;8.63;;;;;;;2.89;81.15;98868.06;5043334;28;20186;-73
2023/03/08 01:44:21;;;;;;;9.53;8.53;;;;;;;2.89;81.03;98873.19;5042800;28;20258;-73
2023/03/08 01:46:46;;;;;;;10.43;8.97;;;;;;;2.88;81.01;98874.03;5037928;28;20668;-72
2023/03/08 01:49:26;;;;;;;12.30;8.93;;;;;;;2.88;81.17;98864.66;5043332;28;20293;-72
2023/03/08 01:52:11;;;;;;;10.60;9.50;;;;;;;2.87;81.13;98862.94;5040449;28;20281;-72
2023/03/08 01:54:57;;;;;;;11.70;9.20;;;;;;;2.84;81.44;98857.84;5043777;28;20198;-73
2023/03/08 01:57:31;;;;;;;9.63;8.63;;;;;;;2.85;81.76;98861.25;5035106;28;20202;-73
2023/03/08 02:00:06;;;;;;;9.90;8.90;;;;;;;2.87;81.82;98844.22;5043460;28;20688;-72
2023/03/08 02:02:39;;;;;;;11.07;9.33;;;;;;;2.97;81.49;98857.84;5043055;28;20237;-72
2023/03/08 02:05:05;;;;;;;11.17;9.33;;;;;;;3.02;81.47;98848.47;5038869;28;20202;-72
2023/03/08 02:07:30;;;;;;;11.13;10.00;;;;;;;3.08;81.52;98852.72;5045434;28;20186;-71
2023/03/08 02:09:56;;;;;;;10.60;9.10;;;;;;;3.14;81.43;98853.56;5039045;28;20836;-72
2023/03/08 02:12:22;;;;;;;9.90;8.87;;;;;;;3.22;81.22;98850.97;5043829;28;20616;-72
2023/03/08 02:14:48;;;;;;;10.27;8.77;;;;;;;3.33;80.99;98856.03;5041934;28;20282;-72
2023/03/08 02:17:13;;;;;;;10.37;9.30;;;;;;;3.45;80.18;98844.94;5042208;28;20247;-72
2023/03/08 02:20:09;;;;;;;9.97;8.97;;;;;;;3.50;80.10;98838.94;5039530;28;20790;-73
2023/03/08 02:22:39;;;;;;;11.60;9.80;;;;;;;3.59;79.74;98832.94;5050175;28;20195;-73
2023/03/08 02:25:13;;;;;;;10.37;8.97;;;;;;;3.63;79.49;98828.69;5067315;28;20174;-72
2023/03/08 02:27:39;;;;;;;9.37;8.37;;;;;;;3.66;79.43;98831.22;5062899;28;20231;-71
2023/03/08 02:30:04;;;;;;;9.80;8.60;;;;;;;3.72;79.24;98827.78;5042706;28;20296;-72
2023/03/08 02:32:30;;;;;;;9.63;8.63;;;;;;;3.70;79.22;98822.69;5044913;28;20349;-72
2023/03/08 02:34:55;;;;;;;9.83;7.90;;;;;;;3.71;79.45;98814.13;5044532;28;20665;-72
2023/03/08 02:37:21;;;;;;;9.47;8.30;;;;;;;3.73;79.18;98816.69;5044189;28;20182;-72
2023/03/08 02:39:46;;;;;;;9.73;8.73;;;;;;;3.73;79.02;98816.69;5044920;28;20195;-72
2023/03/08 02:42:12;;;;;;;8.97;8.07;;;;;;;3.74;79.27;98798.78;5045270;28;20208;-71
2023/03/08 02:44:37;;;;;;;9.27;8.37;;;;;;;3.77;78.82;98790.22;5046887;28;20201;-72
2023/03/08 02:47:02;;;;;;;9.47;8.47;;;;;;;3.78;78.66;98790.22;5046611;28;20194;-73
2023/03/08 02:49:28;;;;;;;9.17;8.27;;;;;;;3.76;78.75;98791.94;5047056;28;20206;-72
2023/03/08 02:51:53;;;;;;;9.40;8.50;;;;;;;3.76;78.77;98785.97;5046444;28;20232;-72
2023/03/08 02:54:18;;;;;;;8.67;7.77;;;;;;;3.75;78.83;98772.34;5048076;28;20189;-72
2023/03/08 02:56:43;;;;;;;8.50;7.57;;;;;;;3.74;79.16;98773.19;5042637;28;20183;-72
2023/03/08 02:59:09;;;;;;;7.53;6.73;;;;;;;3.72;78.53;98772.34;5039839;28;20207;-72
2023/03/08 03:01:34;;;;;;;7.53;6.70;;;;;;;3.68;78.80;98770.66;5046053;28;20202;-72
2023/03/08 03:04:00;;;;;;;8.47;7.37;;;;;;;3.63;78.88;98769.84;5047970;28;20186;-71
2023/03/08 03:06:25;;;;;;;8.23;7.33;;;;;;;3.61;79.01;98762.16;5044099;28;20206;-72
2023/03/08 03:08:51;;;;;;;8.73;7.33;;;;;;;3.57;78.86;98746.84;5064127;28;20768;-72
2023/03/08 03:11:20;;;;;;;7.67;6.93;;;;;;;3.51;78.89;98748.56;5046484;28;20183;-71
2023/03/08 03:13:46;;;;;;;8.30;7.50;;;;;;;3.45;79.07;98747.75;5061886;28;20230;-71
2023/03/08 03:16:15;;;;;;;9.10;7.83;;;;;;;3.42;79.13;98734.97;5047148;28;20190;-72
2023/03/08 03:18:42;;;;;;;8.73;7.47;;;;;;;3.35;79.16;98732.47;5057708;28;20337;-72
2023/03/08 03:21:09;;;;;;;8.33;7.20;;;;;;;3.28;79.35;98728.22;5044768;28;20209;-71
2023/03/08 03:23:35;;;;;;;8.30;7.00;;;;;;;3.20;79.47;98720.59;5044603;28;20685;-72
2023/03/08 03:26:10;;;;;;;8.10;7.30;;;;;;;3.15;79.67;98724.88;5043840;28;20195;-72
2023/03/08 03:28:36;;;;;;;8.60;7.63;;;;;;;3.14;79.60;98727.44;5060543;28;20996;-72
2023/03/08 03:31:06;;;;;;;8.33;7.37;;;;;;;3.14;79.80;98723.19;5042758;28;20277;-70
2023/03/08 03:33:31;;;;;;;8.80;7.90;;;;;;;3.17;79.77;98725.72;5047168;28;20214;-72
2023/03/08 03:35:56;;;;;;;8.57;7.67;;;;;;;3.21;79.77;98718.91;5043853;28;20663;-72
2023/03/08 03:38:21;;;;;;;8.63;7.70;;;;;;;3.26;80.08;98716.31;5043153;28;20213;-73
2023/03/08 03:40:47;;;;;;;10.37;7.87;;;;;;;3.29;79.81;98708.63;5044165;28;20195;-72
2023/03/08 03:43:12;;;;;;;9.87;7.63;;;;;;;3.33;79.75;98703.50;5046334;28;20201;-72
2023/03/08 03:45:37;;;;;;;9.60;8.30;;;;;;;3.37;79.72;98706.03;5037707;28;20651;-72
2023/03/08 03:48:03;;;;;;;8.60;7.60;;;;;;;3.40;79.91;98699.19;5038765;28;20195;-74
2023/03/08 03:50:28;;;;;;;9.07;8.23;;;;;;;3.42;79.86;98711.97;5059746;28;20198;-71
2023/03/08 03:52:53;;;;;;;8.93;8.03;;;;;;;3.44;79.73;98700.88;5046312;28;20882;-74
2023/03/08 03:55:18;;;;;;;10.33;7.97;;;;;;;3.47;79.86;98703.44;5044164;28;20191;-72
2023/03/08 03:57:44;;;;;;;10.23;8.50;;;;;;;3.50;79.87;98715.34;5041544;28;20194;-74
2023/03/08 04:00:10;;;;;;;10.37;8.30;;;;;;;3.51;79.96;98715.31;5046604;28;20624;-72
2023/03/08 04:02:35;;;;;;;9.20;8.07;;;;;;;3.53;79.94;98707.66;5041853;28;20822;-72
2023/03/08 04:05:01;;;;;;;10.57;8.73;;;;;;;3.54;80.10;98706.81;5047141;28;20241;-73
2023/03/08 04:07:27;;;;;;;9.87;8.43;;;;;;;3.54;80.41;98717.03;5040979;28;20202;-71
2023/03/08 04:09:52;;;;;;;9.77;8.77;;;;;;;3.54;80.46;98722.16;5044266;28;20325;-72
2023/03/08 04:12:17;;;;;;;9.33;8.40;;;;;;;3.55;80.86;98712.75;5044245;28;20268;-73
2023/03/08 04:14:43;;;;;;;10.23;8.80;;;;;;;3.56;80.77;98710.16;5046934;28;20194;-72
2023/03/08 04:17:08;;;;;;;9.70;8.80;;;;;;;3.58;80.76;98705.91;5048284;28;20190;-72
2023/03/08 04:19:33;;;;;;;10.63;8.83;;;;;;;3.59;80.69;98704.22;5044839;28;20653;-73
2023/03/08 04:21:59;;;;;;;11.43;9.70;;;;;;;3.60;80.59;98686.28;5046458;28;20700;-72
2023/03/08 04:24:24;;;;;;;11.07;8.67;;;;;;;3.59;80.73;98682.00;5041281;28;20195;-72
2023/03/08 04:26:49;;;;;;;9.47;8.47;;;;;;;3.60;80.64;98677.78;5046200;28;20186;-72
2023/03/08 04:29:15;;;;;;;9.37;8.00;;;;;;;3.63;80.62;98685.44;5045235;28;20211;-72
2023/03/08 04:31:40;;;;;;;9.47;8.53;;;;;;;3.61;80.58;98674.34;5044858;28;20577;-72
2023/03/08 04:34:05;;;;;;;9.17;7.90;;;;;;;3.60;80.54;98688.00;5045877;28;20312;-73
2023/03/08 04:36:31;;;;;;;9.10;8.17;;;;;;;3.59;80.76;98676.91;5039181;28;20267;-73
2023/03/08 04:38:56;;;;;;;8.53;7.63;;;;;;;3.59;80.86;98668.41;5039992;28;20214;-71
2023/03/08 04:41:22;;;;;;;8.40;7.43;;;;;;;3.61;80.75;98670.06;5038957;28;20218;-72
2023/03/08 04:43:56;;;;;;;9.40;7.90;;;;;;;3.62;80.85;98653.88;5045695;28;20187;-72
2023/03/08 04:46:25;;;;;;;8.83;7.13;;;;;;;3.64;80.92;98654.72;5045257;28;20183;-72
2023/03/08 04:48:54;;;;;;;7.90;7.10;;;;;;;3.66;80.87;98657.25;5041821;28;20214;-72
2023/03/08 04:51:22;;;;;;;7.67;6.90;;;;;;;3.66;80.73;98660.66;5043762;28;20240;-72
2023/03/08 04:53:47;;;;;;;8.97;8.07;;;;;;;3.69;80.85;98664.91;5043623;28;20215;-72
2023/03/08 04:56:14;;;;;;;10.07;7.97;;;;;;;3.70;80.72;98660.66;5041000;28;20256;-72
2023/03/08 04:58:41;;;;;;;7.33;6.70;;;;;;;3.71;80.71;98649.53;5040461;28;20301;-71
2023/03/08 05:01:09;;;;;;;8.77;7.50;;;;;;;3.72;80.93;98638.44;5039973;28;20242;-72
2023/03/08 05:03:34;;;;;;;8.47;7.57;;;;;;;3.71;80.81;98646.97;5043991;28;20193;-72
2023/03/08 05:05:59;;;;;;;9.03;7.53;;;;;;;3.71;80.84;98645.28;5039553;28;20198;-72
2023/03/08 05:08:24;;;;;;;9.13;7.93;;;;;;;3.71;80.92;98635.03;5037980;28;20210;-72
2023/03/08 05:10:56;;;;;;;8.20;7.40;;;;;;;3.72;80.86;98634.19;5044240;28;20191;-72
2023/03/08 05:13:22;;;;;;;7.53;6.73;;;;;;;3.72;81.02;98623.09;5038773;28;20963;-70
2023/03/08 05:15:48;;;;;;;8.70;7.80;;;;;;;3.73;81.10;98614.53;5045460;28;20218;-71
2023/03/08 05:18:13;;;;;;;9.67;8.03;;;;;;;3.75;81.15;98617.94;5057970;28;20191;-72
2023/03/08 05:20:38;;;;;;;9.13;7.57;;;;;;;3.75;81.07;98615.38;5037950;28;20543;-72
2023/03/08 05:23:04;;;;;;;8.40;7.60;;;;;;;3.72;81.20;98613.72;5040882;28;20237;-71
2023/03/08 05:25:30;;;;;;;8.27;7.37;;;;;;;3.75;81.26;98613.69;5040469;28;20190;-71
2023/03/08 05:27:55;;;;;;;8.40;7.50;;;;;;;3.77;81.37;98619.66;5054563;28;20206;-72
2023/03/08 05:30:21;;;;;;;7.60;6.90;;;;;;;3.79;81.43;98623.03;5043357;28;20207;-74
2023/03/08 05:32:46;;;;;;;9.10;7.53;;;;;;;3.81;81.43;98628.97;5044591;28;20762;-72
2023/03/08 05:35:11;;;;;;;8.60;7.70;;;;;;;3.85;81.26;98632.38;5042697;28;20206;-72
2023/03/08 05:37:37;;;;;;;7.90;7.10;;;;;;;3.88;81.36;98626.38;5041540;28;21088;-72
2023/03/08 05:40:05;;;;;;;8.17;7.33;;;;;;;3.89;81.34;98623.78;5056474;28;20236;-71
2023/03/08 05:42:31;;;;;;;8.07;7.27;;;;;;;3.92;81.24;98625.50;5046726;28;20175;-71
2023/03/08 05:44:56;;;;;;;9.33;7.80;;;;;;;3.95;81.01;98610.97;5041758;28;20198;-71
2023/03/08 05:47:22;;;;;;;8.20;7.40;;;;;;;3.97;81.13;98609.22;5042457;28;20217;-73
2023/03/08 05:49:47;;;;;;;7.97;7.17;;;;;;;4.00;80.87;98603.22;5039328;28;20238;-72
2023/03/08 05:52:12;;;;;;;8.17;7.40;;;;;;;4.01;81.08;98596.41;5039749;28;20218;-72
2023/03/08 05:54:38;;;;;;;9.53;8.10;;;;;;;4.03;81.06;98592.97;5045231;28;20202;-72
2023/03/08 05:57:04;;;;;;;9.70;8.70;;;;;;;4.03;81.27;98585.28;5043794;28;20328;-72
2023/03/08 05:59:29;;;;;;;9.87;8.87;;;;;;;4.04;81.27;98586.13;5040559;28;20591;-72
2023/03/08 06:01:55;;;;;;;9.97;8.97;;;;;;;4.05;81.18;98590.38;5040207;28;21278;-72
2023/03/08 06:04:21;;;;;;;9.67;8.67;;;;;;;4.05;81.45;98583.56;5037387;28;20195;-73
2023/03/08 06:06:46;;;;;;;9.67;8.60;;;;;;;4.06;81.40;98586.97;5040014;28;20191;-72
2023/03/08 06:09:11;;;;;;;10.30;9.30;;;;;;;4.08;81.58;98580.94;5040228;28;20210;-72
2023/03/08 06:11:36;;;;;;;9.53;8.53;;;;;;;4.09;81.75;98577.53;5039972;28;20687;-72
2023/03/08 06:14:02;;;;;;;10.07;8.93;;;;;;;4.12;81.91;98571.53;5044309;28;20218;-72
2023/03/08 06:16:27;;;;;;;9.30;8.40;;;;;;;4.14;82.12;98568.97;5044283;28;20186;-74
2023/03/08 06:18:52;;;;;;;9.70;8.77;;;;;;;4.18;82.43;98578.31;5044186;28;20222;-71
2023/03/08 06:21:22;;;;;;;11.17;10.03;;;;;;;4.20;82.81;98566.34;5039193;28;20666;-71
2023/03/08 06:23:49;;;;;;;11.07;9.90;;;;;;;4.23;83.51;98574.84;5042905;28;20191;-72
2023/03/08 06:26:14;;;;;;;10.37;9.37;;;;;;;4.26;84.01;98574.81;5045345;28;20301;-71
2023/03/08 06:28:40;;;;;;;11.83;10.57;;;;;;;4.30;84.67;98567.94;5041197;28;20289;-71
2023/03/08 06:31:07;;;;;;;14.97;11.37;;;;;;;4.37;87.01;98563.59;5043496;28;20179;-71
2023/03/08 06:33:33;;;;;;;12.40;11.10;;;;;;;4.40;88.54;98559.25;5044019;28;20237;-71
2023/03/08 06:36:01;;;;;;;13.20;11.77;;;;;;;4.45;90.02;98561.81;5042676;28;20547;-71
2023/03/08 06:38:28;;;;;;;13.27;11.90;;;;;;;4.46;91.59;98560.06;5041313;28;20283;-71
2023/03/08 06:40:54;;;;;;;13.10;11.70;;;;;;;4.44;93.22;98552.41;5037225;28;20201;-71
2023/03/08 06:43:20;;;;;;;12.60;11.23;;;;;;;4.46;95.46;98553.25;5039025;28;20181;-71
2023/03/08 06:45:45;;;;;;;12.97;11.57;;;;;;;4.45;96.50;98543.88;5043001;28;20217;-72
2023/03/08 06:48:10;;;;;;;13.40;12.00;;;;;;;4.42;96.53;98543.91;5041349;28;20624;-72
2023/03/08 06:50:36;;;;;;;13.10;11.27;;;;;;;4.39;97.00;98542.19;5043682;28;20198;-72
2023/03/08 06:53:01;;;;;;;12.37;11.13;;;;;;;4.39;97.53;98538.81;5042666;28;20207;-72
2023/03/08 06:55:26;;;;;;;12.07;10.87;;;;;;;4.37;98.38;98536.28;5041868;28;20198;-73
2023/03/08 06:57:54;;;;;;;13.87;11.43;;;;;;;4.35;99.22;98535.44;5038686;28;20207;-72
2023/03/08 07:00:20;;;;;;;12.50;11.20;;;;;;;4.32;100.00;98529.50;5037257;28;20218;-73
2023/03/08 07:02:47;;;;;;;12.77;11.07;;;;;;;4.30;100.00;98510.75;5035235;28;20192;-72
2023/03/08 07:05:13;;;;;;;11.87;10.67;;;;;;;4.28;100.00;98518.44;5038860;28;20278;-72
2023/03/08 07:07:38;;;;;;;11.47;10.13;;;;;;;4.26;100.00;98503.09;5041888;28;20274;-71
2023/03/08 07:10:05;;;;;;;10.80;9.50;;;;;;;4.24;100.00;98506.53;5037443;28;20230;-72
2023/03/08 07:12:31;;;;;;;11.50;10.30;;;;;;;4.25;100.00;98503.09;5037643;28;20202;-72
2023/03/08 07:14:57;;;;;;;11.60;10.40;;;;;;;4.23;100.00;98486.94;5039210;28;20203;-73
2023/03/08 07:17:23;;;;;;;13.53;10.67;;;;;;;4.23;100.00;98481.81;5043917;28;20194;-73
2023/03/08 07:19:48;;;;;;;12.23;10.37;;;;;;;4.20;100.00;98474.16;5040350;28;20206;-72
2023/03/08 07:22:13;;;;;;;10.27;9.17;;;;;;;4.21;100.00;98481.81;5039189;28;20183;-72
2023/03/08 07:24:39;;;;;;;11.37;9.80;;;;;;;4.23;100.00;98469.03;5042527;28;20226;-73
2023/03/08 07:27:04;;;;;;;11.40;10.17;;;;;;;4.25;100.00;98478.38;5045990;28;20696;-72
2023/03/08 07:29:29;;;;;;;10.27;9.23;;;;;;;4.27;100.00;98468.09;5039236;28;20691;-73
2023/03/08 07:31:55;;;;;;;11.93;9.43;;;;;;;4.31;100.00;98474.88;5040597;28;20192;-73
2023/03/08 07:34:20;;;;;;;10.73;9.60;;;;;;;4.32;100.00;98468.03;5042745;28;20194;-71
2023/03/08 07:36:45;;;;;;;12.27;9.73;;;;;;;4.33;100.00;98462.91;5040007;28;20270;-72
2023/03/08 07:39:11;;;;;;;9.57;8.73;;;;;;;4.38;100.00;98457.72;5045353;28;20251;-72
2023/03/08 07:41:36;;;;;;;9.63;8.63;;;;;;;4.41;100.00;98444.88;5043739;28;20220;-72
2023/03/08 07:44:02;;;;;;;9.60;8.60;;;;;;;4.45;100.00;98441.41;5039336;28;20235;-72
2023/03/08 07:46:28;;;;;;;9.20;7.93;;;;;;;4.49;100.00;98432.78;5041976;28;20182;-73
2023/03/08 07:48:53;;;;;;;8.70;7.80;;;;;;;4.52;100.00;98426.81;5042863;28;20774;-72
2023/03/08 07:51:18;;;;;;;8.80;7.90;;;;;;;4.52;100.00;98417.38;5045248;28;20175;-73
2023/03/08 07:53:44;;;;;;;8.57;7.80;;;;;;;4.53;100.00;98416.50;5039270;28;20301;-72
2023/03/08 07:56:10;;;;;;;9.43;7.90;;;;;;;4.53;100.00;98402.88;5046398;28;20187;-72
2023/03/08 07:58:35;;;;;;;8.70;7.83;;;;;;;4.53;100.00;98413.97;5042431;28;20694;-73
2023/03/08 08:01:06;;;;;;;10.90;9.57;;;;;;;4.52;100.00;98399.44;5048031;28;20217;-72
2023/03/08 08:03:31;;;;;;;12.57;10.73;;;;;;;4.50;100.00;98393.50;5044020;28;20186;-73
2023/03/08 08:06:01;;;;;;;14.07;12.57;;;;;;;4.50;100.00;98396.06;5047428;28;20195;-73
2023/03/08 08:08:26;;;;;;;14.17;12.67;;;;;;;4.46;100.00;98385.88;5070610;28;20187;-73
2023/03/08 08:10:51;;;;;;;13.43;10.97;;;;;;;4.41;100.00;98384.22;5068215;28;20278;-73
2023/03/08 08:13:17;;;;;;;13.73;12.37;;;;;;;4.34;100.00;98381.78;5044727;28;20210;-73
2023/03/08 08:15:42;;;;;;;13.83;12.43;;;;;;;4.20;100.00;98374.31;5045864;28;20197;-73
2023/03/08 08:18:07;;;;;;;16.27;12.93;;;;;;;4.07;100.00;98376.19;5048319;28;20624;-73
2023/03/08 08:20:33;;;;;;;14.87;13.17;;;;;;;4.04;100.00;98371.97;5069672;28;20197;-73
2023/03/08 08:22:58;;;;;;;17.90;14.13;;;;;;;4.04;100.00;98371.09;5049097;28;20186;-72
2023/03/08 08:25:23;;;;;;;16.20;13.83;;;;;;;4.05;100.00;98360.84;5035977;28;20192;-72
2023/03/08 08:27:49;;;;;;;14.67;13.27;;;;;;;4.08;100.00;98360.78;5045661;28;20202;-72
2023/03/08 08:30:15;;;;;;;17.30;14.70;;;;;;;4.10;100.00;98353.13;5034190;28;20211;-73
2023/03/08 08:32:40;;;;;;;18.27;14.33;;;;;;;4.02;100.00;98348.09;5037131;28;20215;-73
2023/03/08 08:35:06;;;;;;;20.67;16.70;;;;;;;3.95;100.00;98337.09;5034523;28;20193;-73
2023/03/08 08:37:32;;;;;;;21.07;17.33;;;;;;;3.94;100.00;98332.84;5044282;28;20269;-73
2023/03/08 08:39:59;;;;;;;22.13;17.87;;;;;;;3.95;100.00;98318.31;5038416;28;20213;-74
2023/03/08 08:42:25;;;;;;;23.43;18.03;;;;;;;3.89;100.00;98319.25;5042532;28;20275;-73
2023/03/08 08:44:52;;;;;;;23.50;19.33;;;;;;;3.99;100.00;98316.59;5044920;28;20698;-73
2023/03/08 08:47:17;;;;;;;27.90;20.50;;;;;;;3.91;100.00;98314.97;5041875;28;20203;-73
2023/03/08 08:49:43;;;;;;;29.30;21.97;;;;;;;3.89;100.00;98305.63;5036389;28;20586;-72
2023/03/08 08:52:08;;;;;;;30.43;21.23;;;;;;;3.83;100.00;98303.13;5041692;28;20297;-72
2023/03/08 08:54:33;;;;;;;34.30;22.80;;;;;;;3.84;100.00;98299.72;5041487;28;20190;-73
2023/03/08 08:56:59;;;;;;;39.33;24.57;;;;;;;3.80;100.00;98291.25;5037468;28;20219;-72
2023/03/08 08:59:24;;;;;;;37.40;24.13;;;;;;;3.70;100.00;98279.44;5046339;28;20297;-73
2023/03/08 09:01:50;;;;;;;35.23;24.13;;;;;;;3.65;100.00;98275.25;5043122;28;20317;-73
2023/03/08 09:04:15;;;;;;;38.70;24.87;;;;;;;3.67;100.00;98275.19;5045108;28;20266;-73
2023/03/08 09:06:41;;;;;;;45.80;27.97;;;;;;;3.69;100.00;98277.75;5043446;28;20198;-73
2023/03/08 09:09:07;;;;;;;43.40;28.97;;;;;;;3.77;100.00;98258.03;5046993;28;20222;-73
2023/03/08 09:11:33;;;;;;;49.80;30.37;;;;;;;3.78;100.00;98265.66;5044031;28;20198;-72
2023/03/08 09:14:01;;;;;;;48.70;30.60;;;;;;;3.81;100.00;98259.69;5041288;28;20218;-72
2023/03/08 09:16:29;;;;;;;47.63;30.00;;;;;;;3.86;100.00;98257.03;5041934;28;20187;-72
2023/03/08 09:18:56;;;;;;;58.47;32.10;;;;;;;3.98;100.00;98251.75;5041467;28;20210;-73
2023/03/08 09:21:23;;;;;;;51.90;30.17;;;;;;;4.10;100.00;98256.66;5041613;28;20625;-73
2023/03/08 09:23:48;;;;;;;55.33;31.43;;;;;;;4.23;100.00;98247.09;5045201;28;20248;-73
2023/03/08 09:26:13;;;;;;;51.67;30.40;;;;;;;4.31;100.00;98239.28;5037139;28;20607;-73
2023/03/08 09:28:39;;;;;;;49.43;29.47;;;;;;;4.35;100.00;98238.38;5042549;28;20203;-72
2023/03/08 09:31:10;;;;;;;49.33;28.80;;;;;;;4.49;100.00;98229.59;5043036;28;20226;-72
2023/03/08 09:33:37;;;;;;;45.83;27.43;;;;;;;4.63;100.00;98232.75;5046345;28;20219;-72
2023/03/08 09:36:03;;;;;;;46.37;27.33;;;;;;;4.78;100.00;98223.94;5039334;28;20201;-73
2023/03/08 09:38:28;;;;;;;44.13;26.07;;;;;;;4.94;100.00;98209.13;5045411;28;20212;-73
2023/03/08 09:41:14;;;;;;;43.13;26.50;;;;;;;5.04;100.00;98213.19;5038171;28;20802;-73
2023/03/08 09:43:50;;;;;;;44.07;25.30;;;;;;;5.07;100.00;98214.84;5055972;28;20200;-72
2023/03/08 09:46:27;;;;;;;44.70;28.30;;;;;;;5.11;100.00;98213.06;5040684;28;20655;-72
2023/03/08 09:48:54;;;;;;;61.90;43.60;;;;;;;5.15;100.00;98219.81;5041222;28;20978;-73
2023/03/08 09:51:22;;;;;;;60.33;40.53;;;;;;;5.21;100.00;98208.59;5038740;28;20271;-72
2023/03/08 09:53:57;;;;;;;52.70;36.67;;;;;;;5.28;100.00;98207.59;5039868;28;20211;-73
2023/03/08 09:56:37;;;;;;;50.50;33.97;;;;;;;5.33;100.00;98204.03;5040559;28;20189;-72
2023/03/08 09:59:18;;;;;;;53.40;36.43;;;;;;;5.45;100.00;98196.94;5037555;28;20214;-72
2023/03/08 10:01:57;;;;;;;51.43;35.57;;;;;;;5.54;100.00;98194.19;5038857;28;20190;-73
2023/03/08 10:04:45;;;;;;;47.13;30.43;;;;;;;5.56;100.00;98189.88;5042135;28;20198;-72
2023/03/08 10:07:23;;;;;;;42.33;27.90;;;;;;;5.58;100.00;98190.69;5045317;28;20270;-72
2023/03/08 10:10:25;;;;;;;42.23;26.27;;;;;;;5.59;100.00;98187.25;5044447;28;20216;-72
2023/03/08 10:13:04;;;;;;;38.77;23.60;;;;;;;5.62;100.00;98181.19;5035251;28;20612;-73
2023/03/08 10:15:32;;;;;;;40.80;26.20;;;;;;;5.60;100.00;98182.94;5042422;28;20203;-72
2023/03/08 10:18:19;;;;;;;42.27;26.57;;;;;;;5.51;100.00;98176.31;5037920;28;20200;-72
2023/03/08 10:20:45;;;;;;;39.73;25.83;;;;;;;5.53;100.00;98160.88;5040396;28;20678;-72
2023/03/08 10:23:20;;;;;;;39.90;25.93;;;;;;;5.61;100.00;98162.38;5056891;28;20200;-73
2023/03/08 10:25:47;;;;;;;39.90;26.37;;;;;;;5.71;100.00;98151.91;5040007;28;20199;-73
2023/03/08 10:28:21;;;;;;;39.57;24.73;;;;;;;5.79;100.00;98143.16;5043030;28;20271;-73
2023/03/08 10:30:48;;;;;;;36.77;24.37;;;;;;;5.87;100.00;98129.28;5039300;28;20188;-73
2023/03/08 10:33:18;;;;;;;32.83;20.73;;;;;;;5.90;100.00;98132.59;5041692;28;20308;-73
2023/03/08 10:36:08;;;;;;;23.10;16.30;;;;;;;5.97;100.00;98135.03;5043542;28;20188;-73
2023/03/08 10:38:35;;;;;;;14.57;9.97;;;;;;;6.08;100.00;98126.22;5042684;28;21073;-73
2023/03/08 10:41:11;;;;;;;12.57;8.90;;;;;;;6.23;100.00;98131.84;5038273;28;20196;-73
2023/03/08 10:43:56;;;;;;;7.60;5.80;;;;;;;6.41;100.00;98127.94;5038119;28;20220;-73
2023/03/08 10:46:29;;;;;;;5.87;5.17;;;;;;;6.55;100.00;98120.69;5041692;28;20673;-73
2023/03/08 10:49:05;;;;;;;5.77;4.77;;;;;;;6.63;100.00;98125.63;5042210;28;20330;-73
2023/03/08 10:51:30;;;;;;;4.30;3.90;;;;;;;6.69;100.00;98124.59;5042888;28;20635;-73
2023/03/08 10:53:58;;;;;;;4.87;4.43;;;;;;;6.78;100.00;98121.78;5041797;28;20218;-72
2023/03/08 10:56:35;;;;;;;6.17;4.23;;;;;;;6.89;100.00;98103.47;5042917;28;20184;-72
2023/03/08 10:59:01;;;;;;;4.60;3.90;;;;;;;7.03;100.00;98097.94;5041742;28;20252;-73
2023/03/08 11:01:32;;;;;;;3.73;3.33;;;;;;;7.15;100.00;98097.56;5030779;28;20221;-72
2023/03/08 11:03:58;;;;;;;3.30;3.00;;;;;;;7.30;100.00;98100.53;5041955;28;20190;-73
2023/03/08 11:06:24;;;;;;;3.17;2.87;;;;;;;7.41;100.00;98113.09;5048336;28;20197;-72
2023/03/08 11:08:53;;;;;;;3.33;2.90;;;;;;;7.50;100.00;98114.53;5044838;28;20559;-73
2023/03/08 11:11:18;;;;;;;3.20;2.90;;;;;;;7.59;100.00;98109.94;5047432;28;20202;-73
2023/03/08 11:13:46;;;;;;;2.43;2.20;;;;;;;7.72;100.00;98119.84;5043266;28;20305;-73
2023/03/08 11:16:27;;;;;;;2.50;2.30;;;;;;;7.80;100.00;98120.41;5046321;28;20235;-73
2023/03/08 11:19:15;;;;;;;2.30;2.10;;;;;;;7.90;100.00;98115.81;5047577;28;20217;-73
2023/03/08 11:21:53;;;;;;;2.70;2.40;;;;;;;7.99;100.00;98115.53;5048650;28;20189;-72
2023/03/08 11:24:30;;;;;;;2.43;2.23;;;;;;;8.06;100.00;98113.59;5040574;28;20200;-74
2023/03/08 11:27:09;;;;;;;2.23;2.03;;;;;;;8.15;100.00;98113.25;5044929;28;20196;-72
2023/03/08 11:30:01;;;;;;;2.40;2.20;;;;;;;8.24;100.00;98120.66;5040162;28;20267;-70
2023/03/08 11:32:39;;;;;;;2.50;2.30;;;;;;;8.36;100.00;98114.25;5043592;28;20214;-74
2023/03/08 11:35:23;;;;;;;2.37;2.17;;;;;;;8.45;100.00;98105.34;5038187;28;20196;-72